Time;durP1;ratioP1;P1;durP2;ratioP2;P2;SDS_P1;SDS_P2;PMS_P1;PMS_P2;Temp;Humidity;BMP_temperature;BMP_pressure;BME280_temperature;BME280_humidity;BME280_pressure;Samples;Min_cycle;Max_cycle;Signal;HPM_P1;HPM_P2
2023/08/08 00:01:26;;;;;;;;;;;13.00;62.00;;;8.58;100.00;95826.59;4992928;28;19909;-47
2023/08/08 00:03:52;;;;;;;;;;;13.00;62.00;;;8.56;100.00;95831.38;4992519;28;19909;-45
2023/08/08 00:06:17;;;;;;;;;;;13.00;62.00;;;8.49;100.00;95822.75;4991128;28;19920;-46
2023/08/08 00:08:43;;;;;;;;;;;13.00;62.10;;;8.51;100.00;95831.28;4992607;28;20388;-45
2023/08/08 00:11:09;;;;;;;;;;;12.90;62.00;;;8.52;100.00;95820.44;4991848;28;19915;-45
2023/08/08 00:13:34;;;;;;;;;;;12.90;62.10;;;8.51;100.00;95824.13;4992685;28;19953;-45
2023/08/08 00:16:00;;;;;;;;;;;12.90;62.20;;;8.52;100.00;95820.44;4991600;28;19914;-45
2023/08/08 00:18:26;;;;;;;;;;;12.90;62.30;;;8.51;100.00;95818.81;4992275;28;19917;-46
2023/08/08 00:20:52;;;;;;;;;;;13.00;62.40;;;8.52;100.00;95812.47;4992735;28;19910;-45
2023/08/08 00:23:17;;;;;;;;;;;12.90;62.30;;;8.52;100.00;95822.28;4991416;28;19914;-45
2023/08/08 00:25:43;;;;;;;;;;;12.90;62.40;;;8.50;100.00;95817.22;4992506;28;20356;-45
2023/08/08 00:28:09;;;;;;;;;;;12.90;62.40;;;8.50;100.00;95811.13;4991537;28;19957;-45
2023/08/08 00:30:35;;;;;;;;;;;12.90;62.50;;;8.51;100.00;95815.38;4992534;28;20722;-49
2023/08/08 00:33:00;;;;;;;;;;;12.90;62.50;;;8.51;100.00;95813.50;4992551;28;19913;-48
2023/08/08 00:35:26;;;;;;;;;;;12.90;62.50;;;8.51;100.00;95812.72;4989389;28;19910;-46
2023/08/08 00:37:52;;;;;;;;;;;12.90;62.60;;;8.47;100.00;95808.94;4992415;28;19913;-46
2023/08/08 00:40:18;;;;;;;;;;;12.90;62.60;;;8.45;100.00;95811.84;4991400;28;21911;-49
2023/08/08 00:42:43;;;;;;;;;;;12.90;62.50;;;8.46;100.00;95804.66;4992451;28;19941;-48
2023/08/08 00:45:09;;;;;;;;;;;12.90;62.60;;;8.46;100.00;95799.38;4992634;28;19916;-53
2023/08/08 00:47:35;;;;;;;;;;;12.90;62.60;;;8.51;100.00;95802.88;4988414;28;19921;-50
2023/08/08 00:50:03;;;;;;;;;;;12.90;63.50;;;8.56;100.00;95802.16;4991458;28;19964;-51
2023/08/08 00:52:30;;;;;;;;;;;13.00;62.90;;;8.54;100.00;95802.41;4990479;28;19909;-49
2023/08/08 00:54:56;;;;;;;;;;;13.00;62.90;;;8.56;100.00;95795.00;4991993;28;20383;-48
2023/08/08 00:57:22;;;;;;;;;;;13.00;62.90;;;8.55;100.00;95803.19;4974133;28;19914;-48
2023/08/08 00:59:47;;;;;;;;;;;13.00;62.90;;;8.55;100.00;95804.03;4984841;28;19940;-49
2023/08/08 01:02:13;;;;;;;;;;;13.00;62.90;;;8.57;100.00;95798.47;4991380;28;20360;-48
2023/08/08 01:04:40;;;;;;;;;;;13.00;62.90;;;8.58;100.00;95792.09;4990651;28;19910;-49
2023/08/08 01:07:36;;;;;;;;;;;13.00;62.90;;;8.55;100.00;95788.09;4991252;28;19941;-52
2023/08/08 01:10:17;;;;;;;;;;;13.00;62.90;;;8.52;100.00;95785.94;4990777;28;19945;-52
2023/08/08 01:12:59;;;;;;;;;;;13.00;62.90;;;8.53;100.00;95784.06;4968484;28;20394;-49
2023/08/08 01:15:26;;;;;;;;;;;13.00;63.00;;;8.54;100.00;95780.34;4980166;28;19914;-48
2023/08/08 01:17:54;;;;;;;;;;;13.00;63.10;;;8.54;100.00;95785.66;4972068;28;20008;-47
2023/08/08 01:20:22;;;;;;;;;;;13.00;63.10;;;8.50;100.00;95793.34;4992544;28;19920;-53
2023/08/08 01:23:12;;;;;;;;;;;12.90;63.00;;;8.45;100.00;95795.09;4976452;28;19966;-47
2023/08/08 01:25:40;;;;;;;;;;;12.90;62.90;;;8.35;100.00;95788.59;4994575;28;19960;-46
2023/08/08 01:28:07;;;;;;;;;;;12.90;62.90;;;8.34;100.00;95791.50;4994010;28;19909;-48
2023/08/08 01:30:34;;;;;;;;;;;12.80;62.90;;;8.32;100.00;95805.00;4994341;28;19916;-47
2023/08/08 01:32:59;;;;;;;;;;;12.80;62.90;;;8.29;100.00;95796.72;4994755;28;19909;-51
2023/08/08 01:35:31;;;;;;;;;;;12.70;62.80;;;8.22;100.00;95788.94;4990475;28;20000;-48
2023/08/08 01:38:13;;;;;;;;;;;12.70;62.80;;;8.07;100.00;95789.53;4994674;28;19937;-49
2023/08/08 01:40:42;;;;;;;;;;;12.70;62.90;;;8.05;100.00;95788.97;4982101;28;19913;-46
2023/08/08 01:43:09;;;;;;;;;;;12.60;62.90;;;7.98;100.00;95783.00;4994466;28;19913;-49
2023/08/08 01:45:37;;;;;;;;;;;12.50;62.90;;;7.95;100.00;95786.16;4977154;28;20048;-48
2023/08/08 01:48:10;;;;;;;;;;;12.50;63.00;;;7.96;100.00;95773.69;4980187;28;19910;-48
2023/08/08 01:50:37;;;;;;;;;;;12.40;63.00;;;7.91;100.00;95782.38;4994394;28;20276;-48
2023/08/08 01:53:04;;;;;;;;;;;12.40;63.10;;;7.85;100.00;95778.06;4992939;28;19909;-47
2023/08/08 01:55:31;;;;;;;;;;;12.40;63.10;;;7.84;100.00;95781.75;4994503;28;19909;-50
2023/08/08 01:57:57;;;;;;;;;;;12.40;63.30;;;7.87;100.00;95784.72;4993831;28;19964;-51
2023/08/08 02:00:22;;;;;;;;;;;12.30;63.40;;;7.82;100.00;95781.97;4992965;28;19960;-49
2023/08/08 02:02:48;;;;;;;;;;;12.30;63.30;;;7.80;100.00;95781.44;4993845;28;19913;-46
2023/08/08 02:05:14;;;;;;;;;;;12.30;64.20;;;7.80;100.00;95784.09;4993186;28;19945;-52
2023/08/08 02:07:40;;;;;;;;;;;12.30;63.40;;;7.73;100.00;95775.47;4994238;28;19909;-45
2023/08/08 02:10:06;;;;;;;;;;;12.20;63.30;;;7.70;100.00;95778.59;4993535;28;20344;-49
2023/08/08 02:12:32;;;;;;;;;;;12.20;63.40;;;7.62;100.00;95771.88;4993370;28;20597;-49
2023/08/08 02:14:59;;;;;;;;;;;12.20;63.40;;;7.60;100.00;95773.16;4993983;28;19923;-47
2023/08/08 02:17:26;;;;;;;;;;;12.10;63.40;;;7.56;100.00;95766.72;4992478;28;19910;-49
2023/08/08 02:19:52;;;;;;;;;;;12.10;63.50;;;7.53;100.00;95762.72;4993177;28;20327;-46
2023/08/08 02:22:18;;;;;;;;;;;12.00;63.50;;;7.51;100.00;95764.00;4992571;28;19917;-46
2023/08/08 02:24:44;;;;;;;;;;;12.00;63.60;;;7.48;100.00;95754.66;4993581;28;19963;-48
2023/08/08 02:27:12;;;;;;;;;;;12.00;63.60;;;7.42;100.00;95761.72;4993518;28;19909;-50
2023/08/08 02:29:37;;;;;;;;;;;11.90;63.60;;;7.39;100.00;95766.69;4991719;28;19918;-45
2023/08/08 02:32:04;;;;;;;;;;;11.90;63.60;;;7.32;100.00;95766.06;4993600;28;19923;-45
2023/08/08 02:34:29;;;;;;;;;;;11.90;63.60;;;7.32;100.00;95764.22;4992113;28;19913;-47
2023/08/08 02:36:55;;;;;;;;;;;11.80;63.60;;;7.32;100.00;95763.41;4993513;28;19917;-46
2023/08/08 02:39:21;;;;;;;;;;;11.80;63.70;;;7.26;100.00;95761.72;4993095;28;19913;-48
2023/08/08 02:41:47;;;;;;;;;;;11.80;63.70;;;7.22;100.00;95755.28;4992217;28;19909;-47
2023/08/08 02:44:12;;;;;;;;;;;11.80;63.80;;;7.21;100.00;95756.31;4993561;28;19913;-49
2023/08/08 02:46:38;;;;;;;;;;;11.70;63.80;;;7.17;100.00;95754.13;4990231;28;19921;-46
2023/08/08 02:49:04;;;;;;;;;;;11.70;63.80;;;7.16;100.00;95757.03;4992767;28;19913;-48
2023/08/08 02:51:30;;;;;;;;;;;11.70;63.90;;;7.11;100.00;95755.13;4993172;28;19956;-49
2023/08/08 02:53:56;;;;;;;;;;;11.70;63.90;;;7.15;100.00;95758.09;4992040;28;20331;-50
2023/08/08 02:56:22;;;;;;;;;;;11.60;64.00;;;7.14;100.00;95765.22;4993071;28;20020;-45
2023/08/08 02:58:47;;;;;;;;;;;11.60;64.10;;;7.15;100.00;95758.09;4991604;28;19932;-49
2023/08/08 03:01:15;;;;;;;;;;;11.60;64.10;;;7.11;100.00;95764.88;4993198;28;19909;-47
2023/08/08 03:03:42;;;;;;;;;;;11.60;64.10;;;7.06;100.00;95762.97;4975599;28;19964;-46
2023/08/08 03:06:08;;;;;;;;;;;11.50;64.10;;;7.04;100.00;95762.38;4991138;28;20000;-49
2023/08/08 03:08:33;;;;;;;;;;;11.50;64.10;;;7.02;100.00;95771.63;4992490;28;20004;-45
2023/08/08 03:10:59;;;;;;;;;;;11.50;64.80;;;6.98;100.00;95771.28;4991288;28;20016;-46
2023/08/08 03:13:25;;;;;;;;;;;11.50;64.10;;;6.95;100.00;95769.09;4992953;28;19909;-46
2023/08/08 03:15:51;;;;;;;;;;;11.40;64.10;;;6.89;100.00;95770.88;4992823;28;19921;-46
2023/08/08 03:18:17;;;;;;;;;;;11.40;64.10;;;6.86;100.00;95771.34;4990555;28;20015;-46
2023/08/08 03:20:42;;;;;;;;;;;11.40;64.10;;;6.82;100.00;95769.41;4992698;28;19944;-45
2023/08/08 03:23:08;;;;;;;;;;;11.40;64.20;;;6.87;100.00;95769.50;4991236;28;19910;-46
2023/08/08 03:25:34;;;;;;;;;;;11.30;64.30;;;6.88;100.00;95771.09;4992517;28;19976;-47
2023/08/08 03:28:00;;;;;;;;;;;11.30;64.40;;;6.85;100.00;95768.94;4992126;28;19913;-46
2023/08/08 03:30:25;;;;;;;;;;;11.30;64.40;;;6.84;100.00;95765.47;4990847;28;19909;-52
2023/08/08 03:32:51;;;;;;;;;;;11.30;64.40;;;6.84;100.00;95764.69;4992566;28;20357;-46
2023/08/08 03:35:17;;;;;;;;;;;11.30;64.50;;;6.82;100.00;95762.25;4990893;28;20023;-47
2023/08/08 03:37:43;;;;;;;;;;;11.30;64.50;;;6.84;100.00;95764.69;4992673;28;19910;-46
2023/08/08 03:40:09;;;;;;;;;;;11.30;64.50;;;6.84;100.00;95772.63;4989958;28;19913;-49
2023/08/08 03:42:35;;;;;;;;;;;11.30;64.60;;;6.84;100.00;95767.31;4992071;28;19925;-46
2023/08/08 03:45:01;;;;;;;;;;;11.30;64.60;;;6.83;100.00;95777.13;4992203;28;19909;-48
2023/08/08 03:47:27;;;;;;;;;;;11.30;64.70;;;6.80;100.00;95769.66;4990744;28;19910;-48
2023/08/08 03:49:57;;;;;;;;;;;11.20;64.60;;;6.81;100.00;95773.09;4991810;28;19964;-47
2023/08/08 03:52:23;;;;;;;;;;;11.20;64.60;;;6.75;100.00;95774.84;4991128;28;20045;-49
2023/08/08 03:54:49;;;;;;;;;;;11.20;64.60;;;6.75;100.00;95774.84;4991993;28;19940;-50
2023/08/08 03:57:15;;;;;;;;;;;11.20;64.70;;;6.76;100.00;95778.28;4992237;28;19915;-48
2023/08/08 03:59:43;;;;;;;;;;;11.20;64.70;;;6.73;100.00;95774.25;4979805;28;26893;-45
2023/08/08 04:02:08;;;;;;;;;;;11.20;64.70;;;6.72;100.00;95778.75;4991773;28;19910;-50
2023/08/08 04:04:34;;;;;;;;;;;11.20;64.80;;;6.69;100.00;95770.47;4990454;28;19924;-46
2023/08/08 04:07:00;;;;;;;;;;;11.20;64.70;;;6.71;100.00;95776.34;4992027;28;20004;-45
2023/08/08 04:09:26;;;;;;;;;;;11.20;64.80;;;6.72;100.00;95776.09;4991550;28;19952;-45
2023/08/08 04:11:52;;;;;;;;;;;11.20;64.80;;;6.73;100.00;95777.69;4990460;28;19995;-45
2023/08/08 04:14:18;;;;;;;;;;;11.20;64.90;;;6.73;100.00;95775.06;4991843;28;19913;-49
2023/08/08 04:16:44;;;;;;;;;;;11.20;64.90;;;6.71;100.00;95784.28;4990802;28;20276;-50
2023/08/08 04:19:09;;;;;;;;;;;11.20;64.90;;;6.72;100.00;95788.53;4991262;28;20056;-46
2023/08/08 04:21:35;;;;;;;;;;;11.20;64.90;;;6.76;100.00;95786.22;4991940;28;19914;-46
2023/08/08 04:24:02;;;;;;;;;;;11.20;64.90;;;6.77;100.00;95793.94;4990464;28;19917;-46
2023/08/08 04:26:28;;;;;;;;;;;11.20;65.00;;;6.76;100.00;95794.16;4974531;28;19920;-50
2023/08/08 04:28:53;;;;;;;;;;;11.20;64.90;;;6.78;100.00;95789.44;4990056;28;20312;-48
2023/08/08 04:31:19;;;;;;;;;;;11.20;65.00;;;6.83;100.00;95790.38;4991715;28;20000;-45
2023/08/08 04:33:45;;;;;;;;;;;11.30;65.00;;;6.85;100.00;95796.19;4991826;28;19909;-46
2023/08/08 04:36:11;;;;;;;;;;;11.30;65.00;;;6.89;100.00;95797.38;4990277;28;19909;-47
2023/08/08 04:38:37;;;;;;;;;;;11.40;65.90;;;6.89;100.00;95799.19;4992853;28;20276;-46
2023/08/08 04:41:02;;;;;;;;;;;11.40;65.10;;;6.92;100.00;95798.72;4990695;28;20352;-46
2023/08/08 04:43:28;;;;;;;;;;;11.40;65.00;;;6.95;100.00;95790.28;4991668;28;19910;-46
2023/08/08 04:45:54;;;;;;;;;;;11.50;65.10;;;7.01;100.00;95792.00;4991923;28;20368;-46
2023/08/08 04:48:20;;;;;;;;;;;11.50;65.10;;;6.99;100.00;95785.31;4988823;28;19909;-46
2023/08/08 04:50:47;;;;;;;;;;;11.60;65.10;;;7.08;100.00;95797.97;4991621;28;20376;-46
2023/08/08 04:53:13;;;;;;;;;;;11.60;65.10;;;7.18;100.00;95806.09;4993822;28;19917;-50
2023/08/08 04:55:39;;;;;;;;;;;11.70;65.10;;;7.36;100.00;95797.16;4995561;28;19909;-48
2023/08/08 04:58:05;;;;;;;;;;;11.80;65.10;;;7.56;100.00;95802.00;4994139;28;19918;-52
2023/08/08 05:00:31;;;;;;;;;;;12.00;65.20;;;7.74;100.00;95802.78;4994798;28;20326;-46
2023/08/08 05:02:56;;;;;;;;;;;12.10;65.30;;;7.81;100.00;95804.25;4994966;28;19918;-48
2023/08/08 05:05:22;;;;;;;;;;;12.20;65.20;;;7.89;100.00;95811.00;4994133;28;19909;-52
2023/08/08 05:07:48;;;;;;;;;;;12.30;65.20;;;7.97;100.00;95807.16;4994598;28;19918;-46
2023/08/08 05:10:14;;;;;;;;;;;12.40;65.20;;;7.97;100.00;95807.94;4994119;28;19997;-51
2023/08/08 05:12:40;;;;;;;;;;;12.50;65.10;;;8.06;100.00;95806.50;5004262;28;19914;-49
2023/08/08 05:15:07;;;;;;;;;;;12.60;65.00;;;8.20;100.00;95811.47;4996902;28;19916;-51
2023/08/08 05:17:33;;;;;;;;;;;12.80;65.00;;;8.29;100.00;95812.66;4995252;28;19953;-48
2023/08/08 05:19:58;;;;;;;;;;;12.90;64.90;;;8.35;100.00;95806.38;4994983;28;20024;-46
2023/08/08 05:22:24;;;;;;;;;;;13.00;64.80;;;8.51;100.00;95810.84;4997242;28;19918;-46
2023/08/08 05:24:50;;;;;;;;;;;13.10;64.70;;;8.64;100.00;95804.38;4994779;28;19909;-46
2023/08/08 05:27:16;;;;;;;;;;;13.30;64.70;;;8.76;100.00;95804.28;4995935;28;19910;-46
2023/08/08 05:29:41;;;;;;;;;;;13.50;64.70;;;8.88;100.00;95796.97;4992987;28;19913;-46
2023/08/08 05:32:08;;;;;;;;;;;13.60;64.70;;;9.07;100.00;95801.97;4994790;28;20581;-45
2023/08/08 05:34:34;;;;;;;;;;;13.80;64.60;;;9.26;100.00;95806.69;4993481;28;20407;-47
2023/08/08 05:37:00;;;;;;;;;;;14.00;64.60;;;9.55;100.00;95810.94;4994653;28;19953;-50
2023/08/08 05:39:26;;;;;;;;;;;14.30;64.60;;;9.79;100.00;95806.91;4994127;28;19956;-46
2023/08/08 05:41:52;;;;;;;;;;;14.70;64.60;;;10.14;100.00;95811.69;4981650;28;20289;-47
2023/08/08 05:44:19;;;;;;;;;;;15.00;64.50;;;10.44;100.00;95814.84;4994738;28;20356;-46
2023/08/08 05:46:44;;;;;;;;;;;15.40;64.50;;;10.63;100.00;95811.50;4993241;28;19909;-50
2023/08/08 05:49:10;;;;;;;;;;;15.70;64.40;;;10.85;100.00;95815.84;4994088;28;19916;-49
2023/08/08 05:51:36;;;;;;;;;;;16.10;64.20;;;11.18;100.00;95805.84;4994286;28;20004;-48
2023/08/08 05:54:02;;;;;;;;;;;16.50;63.80;;;11.45;100.00;95818.97;4993026;28;19917;-47
2023/08/08 05:56:38;;;;;;;;;;;16.80;63.50;;;11.60;100.00;95827.00;4994082;28;20023;-46
2023/08/08 05:59:04;;;;;;;;;;;17.00;63.20;;;11.71;100.00;95823.28;4992678;28;20350;-51
2023/08/08 06:01:32;;;;;;;;;;;17.20;62.80;;;11.75;98.91;95821.69;4976821;28;19913;-48
2023/08/08 06:04:00;;;;;;;;;;;17.30;62.40;;;11.89;98.61;95816.66;4993430;28;19913;-46
2023/08/08 06:06:27;;;;;;;;;;;17.50;62.00;;;11.93;92.52;95822.25;4992956;28;20350;-48
2023/08/08 06:08:53;;;;;;;;;;;17.60;61.70;;;12.04;93.41;95813.97;4993484;28;20388;-49
2023/08/08 06:11:18;;;;;;;;;;;17.70;61.30;;;12.19;92.50;95820.34;4993558;28;19964;-51
2023/08/08 06:13:44;;;;;;;;;;;17.70;61.00;;;12.30;91.78;95813.94;4994439;28;19910;-51
2023/08/08 06:16:10;;;;;;;;;;;17.80;60.90;;;12.40;90.48;95810.47;4993438;28;19909;-56
2023/08/08 06:18:37;;;;;;;;;;;17.90;60.70;;;12.45;88.13;95807.78;4993130;28;19917;-49
2023/08/08 06:21:03;;;;;;;;;;;18.00;60.50;;;12.46;87.64;95804.03;4994017;28;19932;-47
2023/08/08 06:23:28;;;;;;;;;;;18.10;60.20;;;12.72;89.99;95805.59;4992479;28;20356;-46
2023/08/08 06:25:54;;;;;;;;;;;18.30;60.10;;;12.85;84.10;95795.34;4993845;28;19963;-48
2023/08/08 06:28:20;;;;;;;;;;;18.50;59.90;;;13.06;84.84;95804.91;4992580;28;19909;-49
2023/08/08 06:30:46;;;;;;;;;;;18.70;59.70;;;13.22;83.72;95796.81;4993648;28;20344;-49
2023/08/08 06:33:11;;;;;;;;;;;18.90;59.60;;;13.26;79.56;95803.25;4993184;28;19909;-49
2023/08/08 06:35:38;;;;;;;;;;;19.00;59.40;;;13.32;80.84;95805.63;4992299;28;19917;-49
2023/08/08 06:38:04;;;;;;;;;;;19.10;59.20;;;13.47;83.78;95807.38;5000676;28;20040;-47
2023/08/08 06:40:30;;;;;;;;;;;19.10;59.00;;;13.55;81.90;95803.34;5001647;28;20019;-48
2023/08/08 06:42:56;;;;;;;;;;;19.20;59.00;;;13.67;80.24;95805.69;4993445;28;19952;-47
2023/08/08 06:45:22;;;;;;;;;;;19.20;58.90;;;13.81;83.82;95791.38;4993268;28;19960;-48
2023/08/08 06:47:48;;;;;;;;;;;19.40;58.80;;;13.92;79.68;95794.78;4990179;28;20331;-50
2023/08/08 06:50:14;;;;;;;;;;;19.50;58.60;;;13.87;77.19;95786.78;4992966;28;19909;-50
2023/08/08 06:52:40;;;;;;;;;;;19.50;58.30;;;14.00;77.11;95796.03;4989062;28;19944;-46
2023/08/08 06:55:07;;;;;;;;;;;19.60;58.10;;;14.05;74.85;95793.34;4990717;28;19999;-49
2023/08/08 06:57:34;;;;;;;;;;;19.60;58.00;;;14.07;76.71;95801.88;4990452;28;19916;-46
2023/08/08 07:00:00;;;;;;;;;;;19.70;57.80;;;14.23;76.40;95805.22;4988327;28;19913;-47
2023/08/08 07:02:26;;;;;;;;;;;19.70;57.70;;;14.15;74.44;95800.47;4990374;28;19980;-45
2023/08/08 07:04:52;;;;;;;;;;;19.80;57.60;;;14.39;76.92;95795.97;4971919;28;19909;-46
2023/08/08 07:07:17;;;;;;;;;;;19.90;57.50;;;14.50;78.10;95802.81;4990453;28;19949;-45
2023/08/08 07:09:43;;;;;;;;;;;20.10;57.50;;;14.76;75.30;95795.34;4990118;28;19920;-50
2023/08/08 07:12:09;;;;;;;;;;;20.30;57.40;;;15.01;71.59;95790.72;4988633;28;19909;-46
2023/08/08 07:14:35;;;;;;;;;;;20.60;57.10;;;15.24;72.40;95787.22;4990095;28;20331;-51
2023/08/08 07:17:03;;;;;;;;;;;20.80;56.80;;;15.32;69.80;95780.41;4989448;28;20044;-51
2023/08/08 07:19:28;;;;;;;;;;;21.10;56.60;;;15.45;71.88;95776.22;4989931;28;19927;-46
2023/08/08 07:21:54;;;;;;;;;;;21.20;56.30;;;15.53;68.27;95778.25;4989793;28;19913;-50
2023/08/08 07:24:20;;;;;;;;;;;21.40;56.10;;;15.79;68.92;95788.63;4988453;28;20368;-49
2023/08/08 07:26:46;;;;;;;;;;;21.60;55.80;;;15.94;67.74;95781.13;4990334;28;20287;-46
2023/08/08 07:29:12;;;;;;;;;;;21.80;55.60;;;16.16;66.90;95785.06;4989001;28;19921;-46
2023/08/08 07:31:38;;;;;;;;;;;22.00;55.30;;;16.34;66.71;95784.22;4987530;28;20331;-47
2023/08/08 07:34:04;;;;;;;;;;;22.20;55.00;;;16.60;67.00;95787.22;4987323;28;19917;-55
2023/08/08 07:38:59;;;;;;;;;;;22.50;54.80;;;16.92;64.32;95779.41;5053630;22;19921;-46
2023/08/08 07:41:26;;;;;;;;;;;22.70;54.60;;;17.07;64.79;95785.25;5032844;28;19927;-44
2023/08/08 07:43:53;;;;;;;;;;;22.90;54.20;;;17.31;64.51;95776.97;5036139;28;19920;-44
2023/08/08 07:46:18;;;;;;;;;;;23.10;53.90;;;17.54;63.03;95782.38;5036770;28;19909;-48
2023/08/08 07:48:44;;;;;;;;;;;23.50;53.70;;;17.79;65.39;95773.75;5032645;28;20363;-48
2023/08/08 07:51:10;;;;;;;;;;;23.80;53.50;;;18.05;61.22;95778.56;5013622;28;19913;-51
2023/08/08 07:53:36;;;;;;;;;;;24.20;53.10;;;18.18;62.33;95774.97;5014964;28;19920;-51
2023/08/08 07:56:01;;;;;;;;;;;24.40;52.80;;;18.54;61.25;95767.88;5019887;28;19928;-46
2023/08/08 07:58:27;;;;;;;;;;;24.70;52.60;;;18.59;60.58;95778.53;5025899;28;20379;-45
2023/08/08 08:00:53;;;;;;;;;;;24.90;51.90;;;18.77;60.83;95774.00;5031470;28;20397;-46
2023/08/08 08:03:20;;;;;;;;;;;25.10;51.70;;;18.87;59.66;95779.94;5024296;28;19909;-46
2023/08/08 08:05:46;;;;;;;;;;;25.20;51.50;;;19.07;57.64;95773.16;5019857;28;19915;-46
2023/08/08 08:08:12;;;;;;;;;;;25.50;51.30;;;19.40;58.88;95778.16;5031107;28;20385;-45
2023/08/08 08:10:38;;;;;;;;;;;25.70;51.00;;;19.46;56.43;95768.78;5027460;28;19921;-45
2023/08/08 08:13:04;;;;;;;;;;;25.90;50.70;;;19.51;55.63;95760.53;5011630;28;19909;-48
2023/08/08 08:15:30;;;;;;;;;;;26.20;50.30;;;19.60;57.41;95753.22;5031424;28;19908;-47
2023/08/08 08:17:56;;;;;;;;;;;26.40;49.80;;;19.79;53.53;95752.94;5015609;28;19909;-46
2023/08/08 08:20:22;;;;;;;;;;;26.50;49.60;;;20.03;57.11;95763.25;5027189;28;19917;-47
2023/08/08 08:22:48;;;;;;;;;;;26.70;49.20;;;20.40;54.54;95762.84;5023020;28;19920;-46
2023/08/08 08:25:14;;;;;;;;;;;27.00;49.20;;;20.60;50.93;95756.75;5021910;28;19908;-47
2023/08/08 08:27:41;;;;;;;;;;;27.20;48.90;;;20.71;53.26;95757.19;5032238;28;19935;-46
2023/08/08 08:30:09;;;;;;;;;;;27.40;48.70;;;20.85;52.12;95757.78;5025655;28;19908;-48
2023/08/08 08:32:36;;;;;;;;;;;27.50;48.70;;;21.12;52.05;95747.59;5033998;28;19912;-48
2023/08/08 08:35:04;;;;;;;;;;;27.70;48.60;;;21.12;51.42;95751.09;5015427;28;19915;-48
2023/08/08 08:37:30;;;;;;;;;;;27.90;48.20;;;21.30;50.64;95753.69;5018977;28;19917;-47
2023/08/08 08:39:56;;;;;;;;;;;28.00;48.40;;;21.36;51.76;95747.78;5034802;28;19919;-46
2023/08/08 08:42:23;;;;;;;;;;;28.20;47.40;;;21.41;50.09;95746.81;5028429;28;19908;-48
2023/08/08 08:44:51;;;;;;;;;;;28.40;47.20;;;21.70;50.55;95743.22;5035068;28;19934;-46
2023/08/08 08:47:21;;;;;;;;;;;28.50;46.90;;;22.06;50.96;95745.31;5026557;28;19980;-48
2023/08/08 08:49:47;;;;;;;;;;;28.70;47.00;;;22.32;51.46;95747.78;5034841;28;20264;-46
2023/08/08 08:52:13;;;;;;;;;;;28.90;47.00;;;22.55;50.07;95740.00;5030327;28;19909;-47
2023/08/08 08:54:39;;;;;;;;;;;29.10;46.80;;;22.72;48.15;95746.34;5018177;28;20294;-45
2023/08/08 08:57:05;;;;;;;;;;;29.30;46.60;;;22.56;46.45;95747.03;5034789;28;19912;-48
2023/08/08 08:59:31;;;;;;;;;;;29.50;45.80;;;22.71;46.64;95752.94;5030794;28;19934;-48
2023/08/08 09:01:58;;;;;;;;;;;29.60;45.60;;;22.56;47.88;95755.19;5034516;28;19913;-49
2023/08/08 09:04:24;;;;;;;;;;;29.70;45.50;;;22.29;49.07;95753.88;5024753;28;20357;-49
2023/08/08 09:06:51;;;;;;;;;;;29.80;45.30;;;22.60;47.60;95752.59;5030273;28;19913;-45
2023/08/08 09:09:21;;;;;;;;;;;29.90;45.10;;;22.86;47.76;95750.34;5034506;28;19908;-47
2023/08/08 09:11:51;;;;;;;;;;;30.00;44.90;;;22.82;46.78;95760.28;5024178;28;19916;-45
2023/08/08 09:14:23;;;;;;;;;;;30.10;44.70;;;23.01;49.89;95750.81;5034526;28;20326;-47
2023/08/08 09:16:52;;;;;;;;;;;30.20;44.60;;;23.11;44.71;95749.56;5031259;28;19913;-46
2023/08/08 09:19:19;;;;;;;;;;;30.40;44.20;;;23.45;47.79;95748.28;5034478;28;19912;-49
2023/08/08 09:21:46;;;;;;;;;;;30.50;43.80;;;23.60;43.88;95746.75;5030046;28;20371;-46
2023/08/08 09:24:12;;;;;;;;;;;30.70;43.60;;;23.61;48.37;95748.38;5027835;28;19909;-46
2023/08/08 09:26:43;;;;;;;;;;;30.80;42.90;;;23.99;47.32;95740.53;5034017;28;19955;-45
2023/08/08 09:29:13;;;;;;;;;;;31.00;42.60;;;23.74;42.17;95737.13;5020569;28;19924;-46
2023/08/08 09:31:39;;;;;;;;;;;31.20;41.90;;;23.54;43.57;95736.16;5033664;28;20359;-45
2023/08/08 09:34:06;;;;;;;;;;;31.30;41.60;;;23.52;42.86;95741.13;5033550;28;19916;-45
2023/08/08 09:36:33;;;;;;;;;;;31.30;41.60;;;23.70;42.73;95727.28;5020192;28;19909;-47
2023/08/08 09:38:59;;;;;;;;;;;31.40;41.50;;;23.83;41.60;95728.81;5032248;28;19916;-51
2023/08/08 09:41:26;;;;;;;;;;;31.50;41.50;;;23.81;45.18;95730.31;5029426;28;20363;-45
2023/08/08 09:43:54;;;;;;;;;;;31.60;40.80;;;23.89;42.73;95727.44;5009729;28;19909;-48
2023/08/08 09:46:22;;;;;;;;;;;31.60;40.90;;;24.13;46.71;95726.56;5026605;28;19940;-46
2023/08/08 09:48:48;;;;;;;;;;;31.70;40.90;;;24.11;43.52;95726.09;5027337;28;20020;-45
2023/08/08 09:51:14;;;;;;;;;;;31.90;41.10;;;24.12;41.68;95716.00;5034390;28;19916;-46
2023/08/08 09:53:42;;;;;;;;;;;32.10;40.50;;;23.69;44.34;95717.53;5022774;28;19912;-47
2023/08/08 09:56:08;;;;;;;;;;;32.20;39.90;;;23.55;43.52;95724.13;5010465;28;19913;-45
2023/08/08 09:58:34;;;;;;;;;;;32.20;39.70;;;23.71;45.95;95713.34;5031366;28;20337;-46
2023/08/08 10:01:00;;;;;;;;;;;32.20;39.80;;;24.05;44.66;95722.03;5033167;28;19909;-49
2023/08/08 10:03:28;;;;;;;;;;;32.40;39.80;;;24.34;41.06;95717.34;5026224;28;19916;-45
2023/08/08 10:05:54;;;;;;;;;;;32.40;39.70;;;24.58;39.99;95719.94;5027428;28;19916;-45
2023/08/08 10:08:20;;;;;;;;;;;32.50;39.80;;;24.49;39.12;95719.31;5033293;28;20272;-46
2023/08/08 10:10:50;;;;;;;;;;;32.50;39.20;;;24.29;39.61;95721.13;5027178;28;19916;-49
2023/08/08 10:13:24;;;;;;;;;;;32.40;39.10;;;24.42;40.07;95713.72;5027468;28;19909;-45
2023/08/08 10:15:51;;;;;;;;;;;32.30;39.00;;;24.49;39.86;95713.88;5033228;28;19909;-47
2023/08/08 10:18:20;;;;;;;;;;;32.30;39.00;;;24.33;40.82;95722.00;5019277;28;20382;-45
2023/08/08 10:20:51;;;;;;;;;;;32.40;38.70;;;24.53;38.58;95724.84;5029783;28;19928;-46
2023/08/08 10:23:20;;;;;;;;;;;32.50;38.60;;;24.52;39.89;95715.91;5012490;28;19916;-47
2023/08/08 10:25:51;;;;;;;;;;;32.60;38.40;;;24.71;40.71;95717.94;5029091;28;19908;-48
2023/08/08 10:28:20;;;;;;;;;;;32.80;38.20;;;24.97;37.84;95720.09;5032784;28;19913;-48
2023/08/08 10:30:58;;;;;;;;;;;32.90;38.10;;;25.09;38.65;95717.25;5025153;28;19908;-45
2023/08/08 10:33:43;;;;;;;;;;;33.10;37.90;;;24.99;37.25;95712.38;5029730;28;20417;-46
2023/08/08 10:36:10;;;;;;;;;;;33.30;37.70;;;24.99;39.58;95709.63;5013842;28;19963;-48
2023/08/08 10:38:49;;;;;;;;;;;33.50;37.60;;;25.29;39.19;95711.88;5020866;28;20441;-45
2023/08/08 10:41:21;;;;;;;;;;;33.70;37.60;;;25.23;38.82;95705.94;5022413;28;20338;-47
2023/08/08 10:43:56;;;;;;;;;;;33.80;37.20;;;25.56;36.14;95705.47;5033729;28;20010;-46
2023/08/08 10:46:27;;;;;;;;;;;34.00;37.30;;;25.91;34.98;95701.91;5029172;28;20351;-48
2023/08/08 10:49:02;;;;;;;;;;;34.20;36.40;;;26.01;39.29;95705.97;5033522;28;19908;-47
2023/08/08 10:51:42;;;;;;;;;;;34.30;35.90;;;26.17;33.67;95714.09;5026451;28;19917;-48
2023/08/08 10:54:15;;;;;;;;;;;34.50;35.90;;;26.00;34.80;95704.41;5031587;28;19919;-48
2023/08/08 10:56:48;;;;;;;;;;;34.50;35.00;;;25.25;36.29;95698.19;5033500;28;19954;-47
2023/08/08 10:59:37;;;;;;;;;;;34.50;34.60;;;25.78;35.30;95701.22;5027606;28;19920;-49
2023/08/08 11:02:04;;;;;;;;;;;34.70;34.30;;;26.06;35.85;95702.97;5028743;28;20016;-46
2023/08/08 11:04:32;;;;;;;;;;;35.00;33.90;;;26.53;34.39;95699.16;5014617;28;19962;-45
2023/08/08 11:06:58;;;;;;;;;;;35.10;33.90;;;26.69;34.24;95696.28;5026550;28;20386;-45
2023/08/08 11:09:26;;;;;;;;;;;35.30;34.10;;;26.70;34.43;95690.47;5019877;28;19912;-45
2023/08/08 11:11:52;;;;;;;;;;;35.30;34.10;;;26.18;35.14;95689.16;5012386;28;20287;-46
2023/08/08 11:14:23;;;;;;;;;;;35.10;33.80;;;26.01;35.93;95686.88;5032936;28;20413;-45
2023/08/08 11:16:51;;;;;;;;;;;34.80;33.70;;;25.98;35.80;95679.41;5015702;28;20011;-45
2023/08/08 11:19:19;;;;;;;;;;;34.50;33.80;;;26.02;39.26;95681.06;5033053;28;19913;-45